Isle of Anglesey, United Kingdom
Current Conditions -  °F | °C
As of 8:31 AM on Wednesday 26 Nov 2014 (Local Time) from EGOV Reporting Station
Haze Haze  
Wind Chill: 41°   Ceiling: 4000
Heat Index: 45°   Visibility: 4mi
Dew Point: 43°   Wind: 6mph
Humidity: 93%   Direction: 60°ENE
Pressure: 29.91"   Gusts: NA
Location:  53.28°N, 4.35°W
Report Text: EGOV 260831Z 06005KT 7000 HZ FEW015 BKN040 07/06 Q1013 WHT NOSIG
Loading
Personal Weather Stations






























Interactive Weather Map New forecast layout! Learn more

10-Day Weather Forecast

Advertisements
Track Severe Weather on mobile